sensor_id;sensor_type;location;lat;lon;timestamp;P1;durP1;ratioP1;P2;durP2;ratioP2
27491;SDS011;14927;51.210;6.838;2022-11-22T00:01:05;8.00;;;2.28;;
27491;SDS011;14927;51.210;6.838;2022-11-22T00:03:50;4.32;;;1.45;;
27491;SDS011;14927;51.210;6.838;2022-11-22T00:06:35;5.82;;;1.60;;
27491;SDS011;14927;51.210;6.838;2022-11-22T00:09:19;7.05;;;1.92;;
27491;SDS011;14927;51.210;6.838;2022-11-22T00:12:04;8.07;;;1.50;;
27491;SDS011;14927;51.210;6.838;2022-11-22T00:14:48;7.05;;;1.52;;
27491;SDS011;14927;51.210;6.838;2022-11-22T00:17:33;5.75;;;1.13;;
27491;SDS011;14927;51.210;6.838;2022-11-22T00:20:18;6.45;;;1.58;;
27491;SDS011;14927;51.210;6.838;2022-11-22T00:23:03;4.82;;;1.35;;
27491;SDS011;14927;51.210;6.838;2022-11-22T00:25:48;8.73;;;2.35;;
27491;SDS011;14927;51.210;6.838;2022-11-22T00:28:32;8.65;;;1.75;;
27491;SDS011;14927;51.210;6.838;2022-11-22T00:31:17;6.07;;;1.90;;
27491;SDS011;14927;51.210;6.838;2022-11-22T00:34:01;7.95;;;1.75;;
27491;SDS011;14927;51.210;6.838;2022-11-22T00:36:46;6.00;;;1.88;;
27491;SDS011;14927;51.210;6.838;2022-11-22T00:39:31;5.35;;;1.50;;
27491;SDS011;14927;51.210;6.838;2022-11-22T00:42:16;7.28;;;1.70;;
27491;SDS011;14927;51.210;6.838;2022-11-22T00:45:01;4.95;;;1.50;;
27491;SDS011;14927;51.210;6.838;2022-11-22T00:47:45;7.05;;;1.92;;
27491;SDS011;14927;51.210;6.838;2022-11-22T00:50:30;7.47;;;1.65;;
27491;SDS011;14927;51.210;6.838;2022-11-22T00:53:15;7.22;;;1.98;;
27491;SDS011;14927;51.210;6.838;2022-11-22T00:55:59;6.32;;;1.80;;
27491;SDS011;14927;51.210;6.838;2022-11-22T00:58:44;7.00;;;2.25;;
27491;SDS011;14927;51.210;6.838;2022-11-22T01:01:28;7.57;;;1.77;;
27491;SDS011;14927;51.210;6.838;2022-11-22T01:04:13;5.90;;;1.52;;
27491;SDS011;14927;51.210;6.838;2022-11-22T01:06:58;6.20;;;1.90;;
27491;SDS011;14927;51.210;6.838;2022-11-22T01:09:42;5.75;;;1.98;;
27491;SDS011;14927;51.210;6.838;2022-11-22T01:12:27;4.47;;;1.50;;
27491;SDS011;14927;51.210;6.838;2022-11-22T01:15:12;7.93;;;1.88;;
27491;SDS011;14927;51.210;6.838;2022-11-22T01:17:56;9.20;;;2.08;;
27491;SDS011;14927;51.210;6.838;2022-11-22T01:20:41;8.13;;;2.30;;
27491;SDS011;14927;51.210;6.838;2022-11-22T01:23:26;5.53;;;1.70;;
27491;SDS011;14927;51.210;6.838;2022-11-22T01:26:11;5.95;;;1.60;;
27491;SDS011;14927;51.210;6.838;2022-11-22T01:28:55;6.80;;;1.63;;
27491;SDS011;14927;51.210;6.838;2022-11-22T01:31:40;7.10;;;1.98;;
27491;SDS011;14927;51.210;6.838;2022-11-22T01:34:25;5.60;;;1.80;;
27491;SDS011;14927;51.210;6.838;2022-11-22T01:37:09;5.80;;;1.35;;
27491;SDS011;14927;51.210;6.838;2022-11-22T01:39:54;7.18;;;1.88;;
27491;SDS011;14927;51.210;6.838;2022-11-22T01:42:47;6.55;;;1.52;;
27491;SDS011;14927;51.210;6.838;2022-11-22T01:45:36;5.72;;;1.50;;
27491;SDS011;14927;51.210;6.838;2022-11-22T01:51:40;5.97;;;1.63;;
27491;SDS011;14927;51.210;6.838;2022-11-22T01:54:31;4.68;;;1.95;;
27491;SDS011;14927;51.210;6.838;2022-11-22T01:57:21;4.57;;;1.55;;
27491;SDS011;14927;51.210;6.838;2022-11-22T02:00:12;3.97;;;1.45;;
27491;SDS011;14927;51.210;6.838;2022-11-22T02:02:59;3.80;;;1.30;;
27491;SDS011;14927;51.210;6.838;2022-11-22T02:05:47;4.75;;;1.50;;
27491;SDS011;14927;51.210;6.838;2022-11-22T02:08:45;5.60;;;1.70;;
27491;SDS011;14927;51.210;6.838;2022-11-22T02:11:50;5.38;;;1.30;;
27491;SDS011;14927;51.210;6.838;2022-11-22T02:14:37;5.60;;;1.88;;
27491;SDS011;14927;51.210;6.838;2022-11-22T02:17:26;3.22;;;1.45;;
27491;SDS011;14927;51.210;6.838;2022-11-22T02:20:10;6.65;;;1.80;;
27491;SDS011;14927;51.210;6.838;2022-11-22T02:26:05;6.80;;;1.70;;
27491;SDS011;14927;51.210;6.838;2022-11-22T02:28:50;3.67;;;1.35;;
27491;SDS011;14927;51.210;6.838;2022-11-22T02:31:43;4.40;;;1.27;;
27491;SDS011;14927;51.210;6.838;2022-11-22T02:34:39;4.72;;;1.60;;
27491;SDS011;14927;51.210;6.838;2022-11-22T02:37:28;8.70;;;1.40;;
27491;SDS011;14927;51.210;6.838;2022-11-22T02:40:15;6.13;;;1.75;;
27491;SDS011;14927;51.210;6.838;2022-11-22T02:43:10;5.45;;;1.38;;
27491;SDS011;14927;51.210;6.838;2022-11-22T02:46:07;4.28;;;1.30;;
27491;SDS011;14927;51.210;6.838;2022-11-22T02:48:58;4.35;;;1.40;;
27491;SDS011;14927;51.210;6.838;2022-11-22T02:51:43;5.57;;;1.27;;
27491;SDS011;14927;51.210;6.838;2022-11-22T02:54:27;3.63;;;1.20;;
27491;SDS011;14927;51.210;6.838;2022-11-22T02:57:12;5.10;;;1.55;;
27491;SDS011;14927;51.210;6.838;2022-11-22T02:59:57;5.80;;;1.73;;
27491;SDS011;14927;51.210;6.838;2022-11-22T03:02:41;9.07;;;1.90;;
27491;SDS011;14927;51.210;6.838;2022-11-22T03:05:26;6.55;;;1.52;;
27491;SDS011;14927;51.210;6.838;2022-11-22T03:08:11;7.93;;;1.70;;
27491;SDS011;14927;51.210;6.838;2022-11-22T03:10:56;5.70;;;1.40;;
27491;SDS011;14927;51.210;6.838;2022-11-22T03:13:44;5.00;;;1.20;;
27491;SDS011;14927;51.210;6.838;2022-11-22T03:16:29;5.10;;;1.35;;
27491;SDS011;14927;51.210;6.838;2022-11-22T03:19:14;5.50;;;1.13;;
27491;SDS011;14927;51.210;6.838;2022-11-22T03:21:59;7.70;;;1.88;;
27491;SDS011;14927;51.210;6.838;2022-11-22T03:24:44;6.18;;;1.58;;
27491;SDS011;14927;51.210;6.838;2022-11-22T03:27:28;7.78;;;1.92;;
27491;SDS011;14927;51.210;6.838;2022-11-22T03:30:13;5.93;;;1.60;;
27491;SDS011;14927;51.210;6.838;2022-11-22T03:32:58;6.40;;;1.10;;
27491;SDS011;14927;51.210;6.838;2022-11-22T03:35:43;8.02;;;1.85;;
27491;SDS011;14927;51.210;6.838;2022-11-22T03:38:27;3.67;;;1.20;;
27491;SDS011;14927;51.210;6.838;2022-11-22T03:41:12;7.22;;;1.63;;
27491;SDS011;14927;51.210;6.838;2022-11-22T03:43:57;5.50;;;1.38;;
27491;SDS011;14927;51.210;6.838;2022-11-22T03:46:42;6.43;;;1.65;;
27491;SDS011;14927;51.210;6.838;2022-11-22T03:49:26;10.23;;;1.92;;
27491;SDS011;14927;51.210;6.838;2022-11-22T03:52:11;4.38;;;1.48;;
27491;SDS011;14927;51.210;6.838;2022-11-22T03:54:55;9.73;;;1.88;;
27491;SDS011;14927;51.210;6.838;2022-11-22T03:57:40;7.13;;;1.52;;
27491;SDS011;14927;51.210;6.838;2022-11-22T04:00:24;6.60;;;1.90;;
27491;SDS011;14927;51.210;6.838;2022-11-22T04:03:09;6.28;;;1.90;;
27491;SDS011;14927;51.210;6.838;2022-11-22T04:05:54;7.70;;;1.92;;
27491;SDS011;14927;51.210;6.838;2022-11-22T04:08:38;7.90;;;1.88;;
27491;SDS011;14927;51.210;6.838;2022-11-22T04:11:23;10.05;;;2.30;;
27491;SDS011;14927;51.210;6.838;2022-11-22T04:14:09;3.80;;;1.52;;
27491;SDS011;14927;51.210;6.838;2022-11-22T04:17:13;6.70;;;1.55;;
27491;SDS011;14927;51.210;6.838;2022-11-22T04:20:22;4.60;;;1.52;;
27491;SDS011;14927;51.210;6.838;2022-11-22T04:26:13;5.80;;;1.50;;
27491;SDS011;14927;51.210;6.838;2022-11-22T04:28:57;5.45;;;1.63;;
27491;SDS011;14927;51.210;6.838;2022-11-22T04:31:42;7.55;;;1.90;;
27491;SDS011;14927;51.210;6.838;2022-11-22T04:34:45;5.68;;;1.75;;
27491;SDS011;14927;51.210;6.838;2022-11-22T04:37:30;6.45;;;2.10;;
27491;SDS011;14927;51.210;6.838;2022-11-22T04:40:15;5.50;;;2.00;;
27491;SDS011;14927;51.210;6.838;2022-11-22T04:43:00;7.43;;;2.15;;
27491;SDS011;14927;51.210;6.838;2022-11-22T04:46:04;8.63;;;2.05;;
27491;SDS011;14927;51.210;6.838;2022-11-22T04:48:48;6.88;;;1.65;;
27491;SDS011;14927;51.210;6.838;2022-11-22T04:51:33;7.78;;;1.92;;
27491;SDS011;14927;51.210;6.838;2022-11-22T04:54:36;8.00;;;2.20;;
27491;SDS011;14927;51.210;6.838;2022-11-22T04:57:21;10.23;;;2.60;;
27491;SDS011;14927;51.210;6.838;2022-11-22T05:00:06;10.10;;;2.50;;
27491;SDS011;14927;51.210;6.838;2022-11-22T05:02:51;5.35;;;2.30;;
27491;SDS011;14927;51.210;6.838;2022-11-22T05:05:37;6.63;;;2.33;;
27491;SDS011;14927;51.210;6.838;2022-11-22T05:08:23;7.13;;;1.80;;
27491;SDS011;14927;51.210;6.838;2022-11-22T05:11:07;8.02;;;2.75;;
27491;SDS011;14927;51.210;6.838;2022-11-22T05:13:52;6.18;;;2.42;;
27491;SDS011;14927;51.210;6.838;2022-11-22T05:16:37;10.57;;;2.08;;
27491;SDS011;14927;51.210;6.838;2022-11-22T05:19:21;4.57;;;1.92;;
27491;SDS011;14927;51.210;6.838;2022-11-22T05:22:06;7.15;;;1.88;;
27491;SDS011;14927;51.210;6.838;2022-11-22T05:24:50;7.15;;;2.58;;
27491;SDS011;14927;51.210;6.838;2022-11-22T05:27:35;8.32;;;2.28;;
27491;SDS011;14927;51.210;6.838;2022-11-22T05:30:21;10.20;;;2.72;;
27491;SDS011;14927;51.210;6.838;2022-11-22T05:33:05;7.53;;;2.28;;
27491;SDS011;14927;51.210;6.838;2022-11-22T05:35:50;9.52;;;2.33;;
27491;SDS011;14927;51.210;6.838;2022-11-22T05:38:34;8.23;;;2.67;;
27491;SDS011;14927;51.210;6.838;2022-11-22T05:41:20;8.63;;;2.17;;
27491;SDS011;14927;51.210;6.838;2022-11-22T05:44:04;6.45;;;2.17;;
27491;SDS011;14927;51.210;6.838;2022-11-22T05:46:52;7.22;;;2.25;;
27491;SDS011;14927;51.210;6.838;2022-11-22T05:49:37;7.53;;;2.45;;
27491;SDS011;14927;51.210;6.838;2022-11-22T05:52:21;5.95;;;2.13;;
27491;SDS011;14927;51.210;6.838;2022-11-22T05:55:06;9.50;;;2.45;;
27491;SDS011;14927;51.210;6.838;2022-11-22T05:57:51;11.23;;;2.42;;
27491;SDS011;14927;51.210;6.838;2022-11-22T06:00:35;9.43;;;3.55;;
27491;SDS011;14927;51.210;6.838;2022-11-22T06:03:20;12.90;;;3.15;;
27491;SDS011;14927;51.210;6.838;2022-11-22T06:06:05;9.75;;;3.45;;
27491;SDS011;14927;51.210;6.838;2022-11-22T06:08:50;11.40;;;2.85;;
27491;SDS011;14927;51.210;6.838;2022-11-22T06:11:35;8.48;;;2.30;;
27491;SDS011;14927;51.210;6.838;2022-11-22T06:14:19;6.88;;;2.05;;
27491;SDS011;14927;51.210;6.838;2022-11-22T06:17:04;8.18;;;2.60;;
27491;SDS011;14927;51.210;6.838;2022-11-22T06:19:49;7.30;;;2.70;;
27491;SDS011;14927;51.210;6.838;2022-11-22T06:22:33;12.60;;;2.92;;
27491;SDS011;14927;51.210;6.838;2022-11-22T06:25:18;11.93;;;2.97;;
27491;SDS011;14927;51.210;6.838;2022-11-22T06:28:03;7.53;;;2.80;;
27491;SDS011;14927;51.210;6.838;2022-11-22T06:30:47;7.45;;;2.35;;
27491;SDS011;14927;51.210;6.838;2022-11-22T06:33:32;9.75;;;2.88;;
27491;SDS011;14927;51.210;6.838;2022-11-22T06:36:18;8.32;;;2.33;;
27491;SDS011;14927;51.210;6.838;2022-11-22T06:39:07;12.80;;;2.70;;
27491;SDS011;14927;51.210;6.838;2022-11-22T06:41:52;10.77;;;2.63;;
27491;SDS011;14927;51.210;6.838;2022-11-22T06:47:24;11.07;;;2.83;;
27491;SDS011;14927;51.210;6.838;2022-11-22T06:50:09;13.35;;;3.45;;
27491;SDS011;14927;51.210;6.838;2022-11-22T06:52:54;12.52;;;3.47;;
27491;SDS011;14927;51.210;6.838;2022-11-22T06:55:38;15.60;;;4.18;;
27491;SDS011;14927;51.210;6.838;2022-11-22T06:58:24;10.38;;;3.95;;
27491;SDS011;14927;51.210;6.838;2022-11-22T07:01:09;14.73;;;3.15;;
27491;SDS011;14927;51.210;6.838;2022-11-22T07:04:00;11.60;;;3.58;;
27491;SDS011;14927;51.210;6.838;2022-11-22T07:06:45;10.15;;;2.97;;
27491;SDS011;14927;51.210;6.838;2022-11-22T07:09:30;15.07;;;2.90;;
27491;SDS011;14927;51.210;6.838;2022-11-22T07:12:15;12.50;;;3.00;;
27491;SDS011;14927;51.210;6.838;2022-11-22T07:14:59;19.75;;;3.20;;
27491;SDS011;14927;51.210;6.838;2022-11-22T07:17:44;12.52;;;2.88;;
27491;SDS011;14927;51.210;6.838;2022-11-22T07:20:29;13.25;;;3.38;;
27491;SDS011;14927;51.210;6.838;2022-11-22T07:23:13;10.98;;;3.15;;
27491;SDS011;14927;51.210;6.838;2022-11-22T07:25:58;19.10;;;3.40;;
27491;SDS011;14927;51.210;6.838;2022-11-22T07:28:43;13.77;;;3.22;;
27491;SDS011;14927;51.210;6.838;2022-11-22T07:31:28;12.50;;;3.17;;
27491;SDS011;14927;51.210;6.838;2022-11-22T07:34:13;18.92;;;3.20;;
27491;SDS011;14927;51.210;6.838;2022-11-22T07:36:57;17.08;;;3.67;;
27491;SDS011;14927;51.210;6.838;2022-11-22T07:39:42;14.25;;;3.28;;
27491;SDS011;14927;51.210;6.838;2022-11-22T07:42:27;12.90;;;3.53;;
27491;SDS011;14927;51.210;6.838;2022-11-22T07:45:11;15.43;;;3.63;;
27491;SDS011;14927;51.210;6.838;2022-11-22T07:47:58;16.02;;;3.35;;
27491;SDS011;14927;51.210;6.838;2022-11-22T07:50:43;14.02;;;3.50;;
27491;SDS011;14927;51.210;6.838;2022-11-22T07:53:27;16.63;;;4.22;;
27491;SDS011;14927;51.210;6.838;2022-11-22T07:56:12;13.60;;;3.33;;
27491;SDS011;14927;51.210;6.838;2022-11-22T07:58:57;9.82;;;2.83;;
27491;SDS011;14927;51.210;6.838;2022-11-22T08:01:42;13.68;;;3.00;;
27491;SDS011;14927;51.210;6.838;2022-11-22T08:04:27;12.80;;;3.10;;
27491;SDS011;14927;51.210;6.838;2022-11-22T08:07:11;13.75;;;3.38;;
27491;SDS011;14927;51.210;6.838;2022-11-22T08:09:56;11.43;;;2.60;;
27491;SDS011;14927;51.210;6.838;2022-11-22T08:12:41;16.95;;;3.53;;
27491;SDS011;14927;51.210;6.838;2022-11-22T08:15:26;19.77;;;3.03;;
27491;SDS011;14927;51.210;6.838;2022-11-22T08:18:10;14.93;;;3.63;;
27491;SDS011;14927;51.210;6.838;2022-11-22T08:21:02;16.52;;;3.70;;
27491;SDS011;14927;51.210;6.838;2022-11-22T08:23:58;14.40;;;3.45;;
27491;SDS011;14927;51.210;6.838;2022-11-22T08:26:43;14.25;;;2.75;;
27491;SDS011;14927;51.210;6.838;2022-11-22T08:29:28;13.50;;;2.83;;
27491;SDS011;14927;51.210;6.838;2022-11-22T08:32:12;11.45;;;2.20;;
27491;SDS011;14927;51.210;6.838;2022-11-22T08:34:57;11.75;;;2.25;;
27491;SDS011;14927;51.210;6.838;2022-11-22T08:37:42;16.80;;;2.97;;
27491;SDS011;14927;51.210;6.838;2022-11-22T08:40:26;13.70;;;2.45;;
27491;SDS011;14927;51.210;6.838;2022-11-22T08:43:11;11.20;;;2.00;;
27491;SDS011;14927;51.210;6.838;2022-11-22T08:45:56;7.63;;;2.22;;
27491;SDS011;14927;51.210;6.838;2022-11-22T08:48:42;10.18;;;2.25;;
27491;SDS011;14927;51.210;6.838;2022-11-22T08:51:27;7.43;;;1.95;;
27491;SDS011;14927;51.210;6.838;2022-11-22T08:54:12;10.93;;;1.90;;
27491;SDS011;14927;51.210;6.838;2022-11-22T08:56:58;10.98;;;2.70;;
27491;SDS011;14927;51.210;6.838;2022-11-22T08:59:42;10.35;;;2.22;;
27491;SDS011;14927;51.210;6.838;2022-11-22T09:02:27;8.75;;;1.98;;
27491;SDS011;14927;51.210;6.838;2022-11-22T09:05:11;11.65;;;1.98;;
27491;SDS011;14927;51.210;6.838;2022-11-22T09:07:56;9.25;;;2.08;;
27491;SDS011;14927;51.210;6.838;2022-11-22T09:10:41;9.23;;;2.08;;
27491;SDS011;14927;51.210;6.838;2022-11-22T09:13:26;12.55;;;2.05;;
27491;SDS011;14927;51.210;6.838;2022-11-22T09:16:13;10.68;;;2.65;;
27491;SDS011;14927;51.210;6.838;2022-11-22T09:19:01;8.50;;;1.85;;
27491;SDS011;14927;51.210;6.838;2022-11-22T09:21:46;11.15;;;1.55;;
27491;SDS011;14927;51.210;6.838;2022-11-22T09:24:30;8.77;;;1.55;;
27491;SDS011;14927;51.210;6.838;2022-11-22T09:27:15;11.07;;;1.92;;
27491;SDS011;14927;51.210;6.838;2022-11-22T09:30:00;7.78;;;1.70;;
27491;SDS011;14927;51.210;6.838;2022-11-22T09:32:44;15.10;;;1.92;;
27491;SDS011;14927;51.210;6.838;2022-11-22T09:35:29;9.70;;;1.77;;
27491;SDS011;14927;51.210;6.838;2022-11-22T09:38:14;9.57;;;1.50;;
27491;SDS011;14927;51.210;6.838;2022-11-22T09:41:00;10.88;;;1.77;;
27491;SDS011;14927;51.210;6.838;2022-11-22T09:54:09;6.40;;;1.73;;
27491;SDS011;14927;51.210;6.838;2022-11-22T09:57:02;8.80;;;1.58;;
27491;SDS011;14927;51.210;6.838;2022-11-22T09:59:54;13.43;;;2.03;;
27491;SDS011;14927;51.210;6.838;2022-11-22T10:02:52;7.90;;;2.13;;
27491;SDS011;14927;51.210;6.838;2022-11-22T10:06:09;7.32;;;1.42;;
27491;SDS011;14927;51.210;6.838;2022-11-22T10:15:28;10.45;;;1.80;;
27491;SDS011;14927;51.210;6.838;2022-11-22T10:18:22;3.75;;;1.33;;
27491;SDS011;14927;51.210;6.838;2022-11-22T10:21:12;10.27;;;1.80;;
27491;SDS011;14927;51.210;6.838;2022-11-22T10:23:58;7.05;;;1.52;;
27491;SDS011;14927;51.210;6.838;2022-11-22T10:26:42;5.32;;;1.10;;
27491;SDS011;14927;51.210;6.838;2022-11-22T10:39:25;6.47;;;1.38;;
27491;SDS011;14927;51.210;6.838;2022-11-22T10:42:48;9.82;;;1.48;;
27491;SDS011;14927;51.210;6.838;2022-11-22T10:45:51;12.05;;;1.50;;
27491;SDS011;14927;51.210;6.838;2022-11-22T10:48:59;4.90;;;0.98;;
27491;SDS011;14927;51.210;6.838;2022-11-22T10:52:00;5.55;;;1.27;;
27491;SDS011;14927;51.210;6.838;2022-11-22T10:55:20;3.97;;;0.95;;
27491;SDS011;14927;51.210;6.838;2022-11-22T11:05:42;7.00;;;1.08;;
27491;SDS011;14927;51.210;6.838;2022-11-22T11:08:54;3.60;;;0.90;;
27491;SDS011;14927;51.210;6.838;2022-11-22T11:11:47;5.68;;;1.02;;
27491;SDS011;14927;51.210;6.838;2022-11-22T11:14:36;6.00;;;0.93;;
27491;SDS011;14927;51.210;6.838;2022-11-22T11:17:26;4.40;;;0.90;;
27491;SDS011;14927;51.210;6.838;2022-11-22T11:20:20;4.30;;;0.90;;
27491;SDS011;14927;51.210;6.838;2022-11-22T11:23:09;4.75;;;0.90;;
27491;SDS011;14927;51.210;6.838;2022-11-22T11:25:53;4.05;;;0.88;;
27491;SDS011;14927;51.210;6.838;2022-11-22T11:28:38;3.42;;;0.90;;
27491;SDS011;14927;51.210;6.838;2022-11-22T11:31:23;7.25;;;1.00;;
27491;SDS011;14927;51.210;6.838;2022-11-22T11:34:26;9.45;;;0.90;;
27491;SDS011;14927;51.210;6.838;2022-11-22T11:37:17;3.75;;;0.80;;
27491;SDS011;14927;51.210;6.838;2022-11-22T11:40:32;3.15;;;0.82;;
27491;SDS011;14927;51.210;6.838;2022-11-22T11:43:19;4.80;;;0.80;;
27491;SDS011;14927;51.210;6.838;2022-11-22T11:46:13;5.90;;;0.90;;
27491;SDS011;14927;51.210;6.838;2022-11-22T11:49:12;5.95;;;0.80;;
27491;SDS011;14927;51.210;6.838;2022-11-22T11:52:00;2.55;;;0.63;;
27491;SDS011;14927;51.210;6.838;2022-11-22T11:54:55;5.65;;;0.80;;
27491;SDS011;14927;51.210;6.838;2022-11-22T11:57:42;4.70;;;0.65;;
27491;SDS011;14927;51.210;6.838;2022-11-22T12:00:34;3.03;;;0.90;;
27491;SDS011;14927;51.210;6.838;2022-11-22T12:03:21;3.17;;;0.65;;
27491;SDS011;14927;51.210;6.838;2022-11-22T12:06:12;3.38;;;1.00;;
27491;SDS011;14927;51.210;6.838;2022-11-22T12:08:57;3.40;;;0.70;;
27491;SDS011;14927;51.210;6.838;2022-11-22T12:11:47;5.13;;;0.93;;
27491;SDS011;14927;51.210;6.838;2022-11-22T12:14:34;2.35;;;0.35;;
27491;SDS011;14927;51.210;6.838;2022-11-22T12:17:23;1.55;;;0.55;;
27491;SDS011;14927;51.210;6.838;2022-11-22T12:20:14;1.15;;;0.50;;
27491;SDS011;14927;51.210;6.838;2022-11-22T12:26:24;3.15;;;0.55;;
27491;SDS011;14927;51.210;6.838;2022-11-22T12:29:10;2.70;;;0.50;;
27491;SDS011;14927;51.210;6.838;2022-11-22T12:31:58;1.30;;;0.50;;
27491;SDS011;14927;51.210;6.838;2022-11-22T12:34:53;4.72;;;0.50;;
27491;SDS011;14927;51.210;6.838;2022-11-22T12:38:00;2.50;;;0.50;;
27491;SDS011;14927;51.210;6.838;2022-11-22T12:40:54;1.83;;;0.60;;
27491;SDS011;14927;51.210;6.838;2022-11-22T12:43:44;1.17;;;0.53;;
27491;SDS011;14927;51.210;6.838;2022-11-22T12:46:40;1.40;;;0.63;;
27491;SDS011;14927;51.210;6.838;2022-11-22T12:49:43;1.90;;;0.50;;
27491;SDS011;14927;51.210;6.838;2022-11-22T12:52:33;1.60;;;0.52;;
27491;SDS011;14927;51.210;6.838;2022-11-22T12:55:55;3.17;;;0.43;;
27491;SDS011;14927;51.210;6.838;2022-11-22T13:01:48;3.08;;;0.70;;
27491;SDS011;14927;51.210;6.838;2022-11-22T13:11:28;3.00;;;0.70;;
27491;SDS011;14927;51.210;6.838;2022-11-22T13:14:22;1.25;;;0.50;;
27491;SDS011;14927;51.210;6.838;2022-11-22T13:17:33;2.25;;;0.50;;
27491;SDS011;14927;51.210;6.838;2022-11-22T13:20:19;2.45;;;0.80;;
27491;SDS011;14927;51.210;6.838;2022-11-22T13:30:00;2.90;;;0.50;;
27491;SDS011;14927;51.210;6.838;2022-11-22T13:32:56;3.85;;;0.50;;
27491;SDS011;14927;51.210;6.838;2022-11-22T13:35:42;1.35;;;0.50;;
27491;SDS011;14927;51.210;6.838;2022-11-22T13:38:27;2.13;;;0.50;;
27491;SDS011;14927;51.210;6.838;2022-11-22T13:44:25;4.50;;;0.70;;
27491;SDS011;14927;51.210;6.838;2022-11-22T13:47:33;3.50;;;0.63;;
27491;SDS011;14927;51.210;6.838;2022-11-22T13:53:42;6.18;;;0.88;;
27491;SDS011;14927;51.210;6.838;2022-11-22T13:59:18;6.28;;;0.70;;
27491;SDS011;14927;51.210;6.838;2022-11-22T14:02:13;4.55;;;2.13;;
27491;SDS011;14927;51.210;6.838;2022-11-22T14:05:52;7.05;;;1.13;;
27491;SDS011;14927;51.210;6.838;2022-11-22T14:08:38;4.55;;;1.02;;
27491;SDS011;14927;51.210;6.838;2022-11-22T14:11:28;1.98;;;0.70;;
27491;SDS011;14927;51.210;6.838;2022-11-22T14:14:34;6.65;;;0.93;;
27491;SDS011;14927;51.210;6.838;2022-11-22T14:18:15;5.50;;;1.00;;
27491;SDS011;14927;51.210;6.838;2022-11-22T14:31:27;2.05;;;0.40;;
27491;SDS011;14927;51.210;6.838;2022-11-22T14:40:16;1.27;;;0.47;;
27491;SDS011;14927;51.210;6.838;2022-11-22T14:43:31;1.00;;;0.40;;
27491;SDS011;14927;51.210;6.838;2022-11-22T14:46:21;0.73;;;0.38;;
27491;SDS011;14927;51.210;6.838;2022-11-22T14:49:11;0.50;;;0.30;;
27491;SDS011;14927;51.210;6.838;2022-11-22T14:52:20;1.05;;;0.30;;
27491;SDS011;14927;51.210;6.838;2022-11-22T14:55:14;3.28;;;0.50;;
27491;SDS011;14927;51.210;6.838;2022-11-22T14:58:05;0.93;;;0.30;;
27491;SDS011;14927;51.210;6.838;2022-11-22T15:07:32;1.40;;;0.45;;
27491;SDS011;14927;51.210;6.838;2022-11-22T15:16:38;0.75;;;0.57;;
27491;SDS011;14927;51.210;6.838;2022-11-22T15:19:33;0.70;;;0.50;;
27491;SDS011;14927;51.210;6.838;2022-11-22T15:22:25;2.38;;;0.40;;
27491;SDS011;14927;51.210;6.838;2022-11-22T15:25:14;2.35;;;0.50;;
27491;SDS011;14927;51.210;6.838;2022-11-22T15:28:01;1.45;;;0.50;;
27491;SDS011;14927;51.210;6.838;2022-11-22T15:30:48;1.20;;;0.50;;
27491;SDS011;14927;51.210;6.838;2022-11-22T15:33:34;0.65;;;0.45;;
27491;SDS011;14927;51.210;6.838;2022-11-22T15:39:32;1.23;;;0.50;;
27491;SDS011;14927;51.210;6.838;2022-11-22T15:42:21;0.70;;;0.30;;
27491;SDS011;14927;51.210;6.838;2022-11-22T15:45:10;1.20;;;0.40;;
27491;SDS011;14927;51.210;6.838;2022-11-22T15:47:57;1.67;;;0.40;;
27491;SDS011;14927;51.210;6.838;2022-11-22T15:51:00;0.98;;;0.40;;
27491;SDS011;14927;51.210;6.838;2022-11-22T15:56:52;2.20;;;0.50;;
27491;SDS011;14927;51.210;6.838;2022-11-22T15:59:47;0.83;;;0.50;;
27491;SDS011;14927;51.210;6.838;2022-11-22T16:02:32;1.08;;;0.30;;
27491;SDS011;14927;51.210;6.838;2022-11-22T16:05:23;3.03;;;0.40;;
27491;SDS011;14927;51.210;6.838;2022-11-22T16:08:15;1.05;;;0.40;;
27491;SDS011;14927;51.210;6.838;2022-11-22T16:11:00;1.20;;;1.00;;
27491;SDS011;14927;51.210;6.838;2022-11-22T16:13:46;1.13;;;0.80;;
27491;SDS011;14927;51.210;6.838;2022-11-22T16:16:31;1.05;;;0.70;;
27491;SDS011;14927;51.210;6.838;2022-11-22T16:19:20;0.75;;;0.43;;
27491;SDS011;14927;51.210;6.838;2022-11-22T16:22:23;2.53;;;0.88;;
27491;SDS011;14927;51.210;6.838;2022-11-22T16:25:47;0.95;;;0.52;;
27491;SDS011;14927;51.210;6.838;2022-11-22T16:28:32;1.38;;;0.70;;
27491;SDS011;14927;51.210;6.838;2022-11-22T16:34:14;0.70;;;0.50;;
27491;SDS011;14927;51.210;6.838;2022-11-22T16:37:00;0.40;;;0.30;;
27491;SDS011;14927;51.210;6.838;2022-11-22T16:39:46;0.50;;;0.40;;
27491;SDS011;14927;51.210;6.838;2022-11-22T16:42:32;0.57;;;0.40;;
27491;SDS011;14927;51.210;6.838;2022-11-22T16:45:19;5.30;;;0.90;;
27491;SDS011;14927;51.210;6.838;2022-11-22T16:48:12;2.05;;;0.30;;
27491;SDS011;14927;51.210;6.838;2022-11-22T16:51:03;0.30;;;0.20;;
27491;SDS011;14927;51.210;6.838;2022-11-22T16:53:50;0.45;;;0.20;;
27491;SDS011;14927;51.210;6.838;2022-11-22T16:56:39;0.73;;;0.50;;
27491;SDS011;14927;51.210;6.838;2022-11-22T16:59:24;1.55;;;0.25;;
27491;SDS011;14927;51.210;6.838;2022-11-22T17:02:09;2.03;;;0.30;;
27491;SDS011;14927;51.210;6.838;2022-11-22T17:04:56;0.75;;;0.30;;
27491;SDS011;14927;51.210;6.838;2022-11-22T17:07:41;2.55;;;0.30;;
27491;SDS011;14927;51.210;6.838;2022-11-22T17:10:25;0.95;;;0.20;;
27491;SDS011;14927;51.210;6.838;2022-11-22T17:13:17;2.20;;;0.40;;
27491;SDS011;14927;51.210;6.838;2022-11-22T17:16:06;1.17;;;0.30;;
27491;SDS011;14927;51.210;6.838;2022-11-22T17:18:53;1.70;;;0.50;;
27491;SDS011;14927;51.210;6.838;2022-11-22T17:21:37;0.40;;;0.30;;
27491;SDS011;14927;51.210;6.838;2022-11-22T17:24:22;3.03;;;0.40;;
27491;SDS011;14927;51.210;6.838;2022-11-22T17:27:09;3.80;;;0.50;;
27491;SDS011;14927;51.210;6.838;2022-11-22T17:29:56;3.42;;;0.60;;
27491;SDS011;14927;51.210;6.838;2022-11-22T17:32:41;0.68;;;0.40;;
27491;SDS011;14927;51.210;6.838;2022-11-22T17:35:25;1.45;;;0.47;;
27491;SDS011;14927;51.210;6.838;2022-11-22T17:38:12;4.82;;;0.77;;
27491;SDS011;14927;51.210;6.838;2022-11-22T17:40:57;1.90;;;0.57;;
27491;SDS011;14927;51.210;6.838;2022-11-22T17:43:42;2.58;;;0.60;;
27491;SDS011;14927;51.210;6.838;2022-11-22T17:46:27;1.63;;;0.88;;
27491;SDS011;14927;51.210;6.838;2022-11-22T17:49:13;1.23;;;0.90;;
27491;SDS011;14927;51.210;6.838;2022-11-22T17:51:58;1.45;;;0.70;;
27491;SDS011;14927;51.210;6.838;2022-11-22T17:54:42;0.70;;;0.50;;
27491;SDS011;14927;51.210;6.838;2022-11-22T17:57:27;2.22;;;1.05;;
27491;SDS011;14927;51.210;6.838;2022-11-22T18:00:12;0.75;;;0.57;;
27491;SDS011;14927;51.210;6.838;2022-11-22T18:02:58;0.57;;;0.50;;
27491;SDS011;14927;51.210;6.838;2022-11-22T18:05:42;0.68;;;0.57;;
27491;SDS011;14927;51.210;6.838;2022-11-22T18:08:27;1.17;;;0.50;;
27491;SDS011;14927;51.210;6.838;2022-11-22T18:11:12;1.80;;;0.80;;
27491;SDS011;14927;51.210;6.838;2022-11-22T18:13:58;1.75;;;0.70;;
27491;SDS011;14927;51.210;6.838;2022-11-22T18:16:42;1.58;;;0.82;;
27491;SDS011;14927;51.210;6.838;2022-11-22T18:19:27;1.23;;;0.80;;
27491;SDS011;14927;51.210;6.838;2022-11-22T18:22:12;1.98;;;0.68;;
27491;SDS011;14927;51.210;6.838;2022-11-22T18:24:56;1.23;;;0.77;;
27491;SDS011;14927;51.210;6.838;2022-11-22T18:27:41;1.92;;;1.30;;
27491;SDS011;14927;51.210;6.838;2022-11-22T18:30:26;1.70;;;1.02;;
27491;SDS011;14927;51.210;6.838;2022-11-22T18:33:11;2.05;;;1.00;;
27491;SDS011;14927;51.210;6.838;2022-11-22T18:36:03;1.80;;;1.08;;
27491;SDS011;14927;51.210;6.838;2022-11-22T18:38:50;2.08;;;1.20;;
27491;SDS011;14927;51.210;6.838;2022-11-22T18:41:34;1.98;;;1.02;;
27491;SDS011;14927;51.210;6.838;2022-11-22T18:44:20;1.65;;;1.00;;
27491;SDS011;14927;51.210;6.838;2022-11-22T18:47:05;1.40;;;1.00;;